This is the latest recevied weather packets stored in our database for station/object SV1TQE-1. If no packets are shown the sender has not sent any weather packets the latest 10 day(s).
| Time | Temp. | Humidity | Pressure | Rain* | Wind** | Luminosity | Snow |
|---|---|---|---|---|---|---|---|
| 1787885523 | 27.78° C | 92% | 1019.7 hPa | - | - | - | - |
| 1787884623 | 27.78° C | 93% | 1019.8 hPa | - | - | - | - |
| 1787883723 | 27.78° C | 84% | 1019.9 hPa | - | - | - | - |
| 1787882823 | 28.33° C | 82% | 1020 hPa | - | - | - | - |
| 1787881923 | 28.33° C | 86% | 1020 hPa | - | - | - | - |
| 1787881022 | 28.33° C | 91% | 1020.2 hPa | - | - | - | - |
| 1787880122 | 28.33° C | 86% | 1020.2 hPa | - | - | - | - |
| 1787879222 | 28.33° C | 79% | 1020.3 hPa | - | - | - | - |
| 1787878322 | 28.89° C | 82% | 1020.3 hPa | - | - | - | - |
| 1787877422 | 28.89° C | 84% | 1020.3 hPa | - | - | - | - |
| 1787876522 | 28.89° C | 89% | 1020.4 hPa | - | - | - | - |
| 1787874727 | 28.89° C | 77% | 1020.4 hPa | - | - | - | - |
| 1787873827 | 28.89° C | 73% | 1020.1 hPa | - | - | - | - |
| 1787872927 | 29.44° C | 81% | 1020.4 hPa | - | - | - | - |
| 1787872027 | 29.44° C | 82% | 1020.6 hPa | - | - | - | - |
| 1787870227 | 29.44° C | 88% | 1020.8 hPa | - | - | - | - |
| 1787869327 | 29.44° C | 95% | 1020.9 hPa | - | - | - | - |
| 1787868426 | 29.44° C | 90% | 1020.9 hPa | - | - | - | - |
| 1787866626 | 30° C | 90% | 1020.9 hPa | - | - | - | - |
| 1787865726 | 30° C | 98% | 1020.9 hPa | - | - | - | - |
| 1787863926 | 30.56° C | 72% | 1020.7 hPa | - | - | - | - |
| 1787863026 | 30.56° C | 61% | 1020.7 hPa | - | - | - | - |
| 1787862125 | 30.56° C | 58% | 1020.7 hPa | - | - | - | - |
| 1787861225 | 30.56° C | 57% | 1020.7 hPa | - | - | - | - |
| 1787860325 | 30.56° C | 54% | 1020.6 hPa | - | - | - | - |
* Rain since midnight (hover to see other rain measurements)
** Current wind speed in m/s (hover to see current wind gust speed)